Buffalo Niagara International Airport
KBUF : now visible

Airfield :











YOU CAN JOIN US ON...

 
LOGIN :

Register | Disclaimer

   EN    FR    IT 

 









Legend :    VFR   Marginal VFR   IFR   Intensive IFR   Very Intensive IFR
Visi :
Ceiling :
>= 8 km
>= 3000ft
5 to 8 km
1000 to 3000 ft
1500m to 5 km
500 to 1000 ft
800 to 1500m
200 to 500 ft
< 800m
< 200 ft
Symbols :   Thunderstorms  Fog  Heavy snow  Heavy precipitations  Wind > 20 kt







- Airport Elevation : 728 ft
- IATA code : BUF


KBUF - Buffalo Niagara International

CURRENT METAR :
  • 201254Z 23013KT 7SM BKN003 BKN055 BKN080 12/12 A2977 RMK AO2 SLP082 CIG HYR E-S-SW AND NW-N T01220117

EXPIRED METARs :
  • 201154Z 23010KT 7SM OVC003 12/12 A2976 RMK AO2 SLP077 70010 T01220117 10194 20122 53012 $
  • 201120Z 22011G18KT 8SM BKN003 BKN055 BKN075 12/11 A2976 RMK AO2 T01220111 $
  • 201054Z 21011KT 10SM BKN055 BKN075 12/12 A2975 RMK AO2 SLP072 T01220117 $
  • 201013Z 21009KT 10SM FEW009 BKN060 OVC080 14/13 A2974 RMK AO2 T01440133 $
  • 201005Z 22012KT 10SM BKN009 OVC055 15/13 A2974 RMK AO2 CIG 008V013 T01500133 $

TAF KBUF
Valid from the 20 at 11:00 until the 21 at 12:00 UTC


201129Z 2011/2112 22012KT P6SM BKN004
FM201500 23015G25KT P6SM BKN045
FM201700 24023G36KT P6SM BKN060
FM202000 24023G32KT P6SM BKN025
FM210500 28010G18KT P6SM SCT030
KZOB FIR / North America



MET'MAP, your aeronautical weather chart ! - Copyright ORBIFLY December 2007 - Disclaimer

ORBIFLY MET'MAP TEAM :

Programming & Development : Alexandra Zaïnal
Concept & Development : Baudouin d'Aumeries
Co-Development & Prog : Marc-Olivier Méhu
Technical & hardware support : Manuel Goepfert

Contact : metmap@orbifly.com




SOURCES & CREDITS :

   NOAA       Earth
Advisory